Time;durP1;ratioP1;P1;durP2;ratioP2;P2;SDS_P1;SDS_P2;PMS_P1;PMS_P2;Temp;Humidity;BMP_temperature;BMP_pressure;BME280_temperature;BME280_humidity;BME280_pressure;Samples;Min_cycle;Max_cycle;Signal;HPM_P1;HPM_P2
2022/05/19 00:02:11;;;;;;;19.20;14.20;;;14.10;99.90;;;;;;4975845;28;20070;-68
2022/05/19 00:04:38;;;;;;;19.42;15.73;;;14.10;99.90;;;;;;4976426;28;20094;-68
2022/05/19 00:07:04;;;;;;;21.30;16.17;;;14.20;99.90;;;;;;4978482;28;20085;-68
2022/05/19 00:09:31;;;;;;;22.92;16.27;;;14.20;99.90;;;;;;4982229;28;20764;-68
2022/05/19 00:11:59;;;;;;;22.90;15.85;;;14.20;99.90;;;;;;4979718;28;20607;-68
2022/05/19 00:14:25;;;;;;;23.13;17.33;;;14.20;99.90;;;;;;4972559;28;20062;-68
2022/05/19 00:16:56;;;;;;;24.80;16.63;;;14.20;99.90;;;;;;4979939;28;20050;-68
2022/05/19 00:19:22;;;;;;;24.13;17.45;;;14.20;99.90;;;;;;4973903;28;20074;-68
2022/05/19 00:21:48;;;;;;;25.27;17.80;;;14.20;99.90;;;;;;4979013;28;20039;-68
2022/05/19 00:24:14;;;;;;;30.67;17.38;;;14.30;99.90;;;;;;4970616;28;20046;-68
2022/05/19 00:26:39;;;;;;;33.05;19.17;;;14.20;99.90;;;;;;4961893;28;20129;-68
2022/05/19 00:29:05;;;;;;;26.98;17.52;;;14.20;99.90;;;;;;4973802;28;20039;-68
2022/05/19 00:31:32;;;;;;;30.38;18.98;;;14.20;99.90;;;;;;4981620;28;20046;-68
2022/05/19 00:33:59;;;;;;;29.40;18.45;;;14.20;99.90;;;;;;4976970;28;20042;-68
2022/05/19 00:36:25;;;;;;;27.33;19.13;;;14.20;99.90;;;;;;4976691;28;20122;-68
2022/05/19 00:38:51;;;;;;;28.17;18.10;;;14.20;99.90;;;;;;4972310;28;20607;-68
2022/05/19 00:41:17;;;;;;;29.23;19.63;;;14.20;99.90;;;;;;4986528;28;20049;-68
2022/05/19 00:43:45;;;;;;;27.40;18.65;;;14.20;99.90;;;;;;4975455;28;20049;-68
2022/05/19 00:46:55;;;;;;;24.85;18.02;;;14.20;99.90;;;;;;4978303;28;20049;-68
2022/05/19 00:49:32;;;;;;;25.60;17.88;;;14.20;99.90;;;;;;4955492;28;20419;-68
2022/05/19 00:52:15;;;;;;;28.33;18.38;;;14.20;99.90;;;;;;4974241;28;20046;-68
2022/05/19 00:54:49;;;;;;;35.35;19.73;;;14.20;99.90;;;;;;4973413;28;20463;-68
2022/05/19 00:57:21;;;;;;;28.30;19.48;;;14.20;99.90;;;;;;4974654;28;20419;-68
2022/05/19 00:59:54;;;;;;;28.63;19.88;;;14.20;99.90;;;;;;4974660;28;20050;-69
2022/05/19 01:02:24;;;;;;;29.38;19.90;;;14.20;99.90;;;;;;4974818;28;20054;-68
2022/05/19 01:05:03;;;;;;;30.33;19.92;;;14.10;99.90;;;;;;4963883;28;20050;-68
2022/05/19 01:07:36;;;;;;;32.03;21.08;;;14.10;99.90;;;;;;4980157;28;20146;-68
2022/05/19 01:10:04;;;;;;;30.13;19.67;;;14.20;99.90;;;;;;4980568;28;20046;-68
2022/05/19 01:12:30;;;;;;;29.75;20.15;;;14.10;99.90;;;;;;4978933;28;20057;-68
2022/05/19 01:14:55;;;;;;;28.67;19.25;;;14.10;99.90;;;;;;4973718;28;20042;-68
2022/05/19 01:17:22;;;;;;;32.95;21.80;;;14.20;99.90;;;;;;4979254;28;20491;-68
2022/05/19 01:20:01;;;;;;;37.33;23.50;;;14.20;99.90;;;;;;4981281;28;20110;-68
2022/05/19 01:22:39;;;;;;;37.15;23.48;;;14.20;99.90;;;;;;4985291;28;20050;-67
2022/05/19 01:25:24;;;;;;;31.40;22.48;;;14.20;99.90;;;;;;5007819;28;20142;-68
2022/05/19 01:27:50;;;;;;;34.45;21.80;;;14.20;99.90;;;;;;4978446;28;20060;-68
2022/05/19 01:30:15;;;;;;;30.90;21.42;;;14.30;99.90;;;;;;4982196;28;21838;-67
2022/05/19 01:32:41;;;;;;;32.38;21.65;;;14.20;99.90;;;;;;4975750;28;20566;-68
2022/05/19 01:35:08;;;;;;;31.13;22.42;;;14.20;99.90;;;;;;4971665;28;20542;-67
2022/05/19 01:37:34;;;;;;;31.15;22.17;;;14.20;99.90;;;;;;4978236;28;20545;-68
2022/05/19 01:40:25;;;;;;;32.15;23.17;;;14.20;99.90;;;;;;4983734;28;20046;-68
2022/05/19 01:42:59;;;;;;;29.77;22.10;;;14.20;99.90;;;;;;4983020;28;20073;-68
2022/05/19 01:45:52;;;;;;;41.95;23.85;;;14.20;99.90;;;;;;4986178;28;20269;-68
2022/05/19 01:48:23;;;;;;;30.98;21.90;;;14.10;99.90;;;;;;4985072;28;20247;-68
2022/05/19 01:51:12;;;;;;;33.17;25.10;;;14.20;99.90;;;;;;4961871;28;20062;-68
2022/05/19 01:54:13;;;;;;;37.13;24.55;;;14.20;99.90;;;;;;4975473;28;20054;-69
2022/05/19 01:56:57;;;;;;;30.80;22.33;;;14.20;99.90;;;;;;4958228;28;20062;-68
2022/05/19 01:59:33;;;;;;;38.55;25.20;;;14.20;99.90;;;;;;4979321;28;20042;-68
2022/05/19 02:02:16;;;;;;;37.60;24.55;;;14.30;99.90;;;;;;4980122;28;20494;-68
2022/05/19 02:05:00;;;;;;;32.90;25.77;;;14.30;99.90;;;;;;4988231;28;20088;-68
2022/05/19 02:07:27;;;;;;;38.20;26.90;;;14.30;99.90;;;;;;4958145;28;20042;-68
2022/05/19 02:10:09;;;;;;;46.08;28.77;;;14.30;99.90;;;;;;4979236;28;20043;-68
2022/05/19 02:12:39;;;;;;;38.38;26.05;;;14.30;99.90;;;;;;4994516;28;20042;-68
2022/05/19 02:15:11;;;;;;;44.35;28.60;;;14.30;99.90;;;;;;4975115;28;20059;-69
2022/05/19 02:17:37;;;;;;;38.63;28.33;;;14.20;99.90;;;;;;4980176;28;20410;-68
2022/05/19 02:20:09;;;;;;;40.42;27.83;;;14.20;99.90;;;;;;4978305;28;20052;-68
2022/05/19 02:22:42;;;;;;;42.65;28.50;;;14.20;99.90;;;;;;4981875;28;20042;-68
2022/05/19 02:25:28;;;;;;;40.75;28.00;;;14.20;99.90;;;;;;4979481;28;20042;-68
2022/05/19 02:28:03;;;;;;;50.08;30.85;;;14.20;99.90;;;;;;4968480;28;20054;-68
2022/05/19 02:30:32;;;;;;;45.22;29.05;;;14.20;99.90;;;;;;4980257;28;20399;-68
2022/05/19 02:32:58;;;;;;;46.63;31.30;;;14.20;99.90;;;;;;4979761;28;20042;-68
2022/05/19 02:35:24;;;;;;;43.08;30.58;;;14.20;99.90;;;;;;4974082;28;20065;-68
2022/05/19 02:37:51;;;;;;;38.40;28.92;;;14.20;99.90;;;;;;4959813;28;20196;-69
2022/05/19 02:40:20;;;;;;;40.47;30.65;;;14.20;99.90;;;;;;4977985;28;20469;-68
2022/05/19 02:42:46;;;;;;;46.90;33.80;;;14.20;99.90;;;;;;4975618;28;20388;-68
2022/05/19 02:45:14;;;;;;;50.00;35.17;;;14.20;99.90;;;;;;4976206;28;20042;-68
2022/05/19 02:47:41;;;;;;;52.03;34.78;;;14.20;99.90;;;;;;4982792;28;20239;-68
2022/05/19 02:50:08;;;;;;;53.70;37.88;;;14.20;99.90;;;;;;4971852;28;20520;-68
2022/05/19 02:52:34;;;;;;;53.90;38.92;;;14.30;99.90;;;;;;4992743;28;20062;-68
2022/05/19 02:55:00;;;;;;;57.38;40.03;;;14.30;99.90;;;;;;4974490;28;20038;-68
2022/05/19 02:57:26;;;;;;;58.00;42.20;;;14.30;99.90;;;;;;4972842;28;20065;-68
2022/05/19 02:59:51;;;;;;;60.03;42.17;;;14.30;99.90;;;;;;4976083;28;20057;-68
2022/05/19 03:02:17;;;;;;;61.42;42.53;;;14.30;99.90;;;;;;4976719;28;20078;-69
2022/05/19 03:04:43;;;;;;;58.47;40.35;;;14.30;99.90;;;;;;4975560;28;20046;-69
2022/05/19 03:07:09;;;;;;;62.95;44.42;;;14.40;99.90;;;;;;4981981;28;20673;-68
2022/05/19 03:09:35;;;;;;;61.15;43.95;;;14.40;99.90;;;;;;4980179;28;20048;-68
2022/05/19 03:12:01;;;;;;;66.38;45.63;;;14.40;99.90;;;;;;4976879;28;20045;-68
2022/05/19 03:14:27;;;;;;;69.18;48.20;;;14.40;99.90;;;;;;4980278;28;20034;-69
2022/05/19 03:16:52;;;;;;;62.25;48.03;;;14.50;99.90;;;;;;4975642;28;20047;-69
2022/05/19 03:19:18;;;;;;;63.83;47.92;;;14.50;99.90;;;;;;4976600;28;20396;-69
2022/05/19 03:21:45;;;;;;;74.53;49.83;;;14.50;99.90;;;;;;4974771;28;20046;-69
2022/05/19 03:24:11;;;;;;;74.78;50.22;;;14.60;99.90;;;;;;4969943;28;20474;-69
2022/05/19 03:26:37;;;;;;;70.30;50.85;;;14.60;99.90;;;;;;4957305;28;20049;-69
2022/05/19 03:29:03;;;;;;;66.50;48.30;;;14.60;99.90;;;;;;4977110;28;20080;-69
2022/05/19 03:31:29;;;;;;;69.85;49.33;;;14.60;99.90;;;;;;4969529;28;20046;-69
2022/05/19 03:33:54;;;;;;;69.30;50.67;;;14.60;99.90;;;;;;4978849;28;20039;-68
2022/05/19 03:36:20;;;;;;;71.40;49.65;;;14.70;99.90;;;;;;4974859;28;20054;-68
2022/05/19 03:38:46;;;;;;;73.93;51.05;;;14.70;99.90;;;;;;4988373;28;20043;-68
2022/05/19 03:41:12;;;;;;;71.05;50.42;;;14.80;99.90;;;;;;4979319;28;20578;-68
2022/05/19 03:43:37;;;;;;;75.32;51.63;;;14.70;99.90;;;;;;4977700;28;20038;-68
2022/05/19 03:46:04;;;;;;;66.40;49.97;;;14.80;99.90;;;;;;4956409;28;20069;-68
2022/05/19 03:48:47;;;;;;;67.85;49.13;;;14.80;99.90;;;;;;4978732;28;20451;-68
2022/05/19 03:51:23;;;;;;;70.43;49.35;;;14.90;99.90;;;;;;4966010;28;20042;-68
2022/05/19 03:53:50;;;;;;;67.53;47.30;;;14.90;99.90;;;;;;4974723;28;20093;-68
2022/05/19 03:56:20;;;;;;;69.90;48.55;;;14.90;99.90;;;;;;4989506;28;20039;-68
2022/05/19 03:58:46;;;;;;;62.33;46.10;;;15.00;99.90;;;;;;4986139;28;20451;-68
2022/05/19 04:01:12;;;;;;;70.15;46.58;;;15.00;99.90;;;;;;4975702;28;20042;-68
2022/05/19 04:03:38;;;;;;;63.85;46.25;;;15.00;99.90;;;;;;4975349;28;20597;-68
2022/05/19 04:06:04;;;;;;;61.22;44.55;;;15.00;99.90;;;;;;4975853;28;20125;-69
2022/05/19 04:08:30;;;;;;;64.72;45.95;;;15.10;99.90;;;;;;4974695;28;20604;-68
2022/05/19 04:10:56;;;;;;;60.72;44.40;;;15.30;99.90;;;;;;4979270;28;20591;-68
2022/05/19 04:13:22;;;;;;;61.78;45.22;;;15.10;99.90;;;;;;4980584;28;20145;-69
2022/05/19 04:15:48;;;;;;;65.30;46.08;;;15.20;99.90;;;;;;4979171;28;20053;-67
2022/05/19 04:18:14;;;;;;;59.88;46.00;;;15.30;99.90;;;;;;4979375;28;20125;-68
2022/05/19 04:20:40;;;;;;;63.63;44.88;;;15.30;99.90;;;;;;4993525;28;20577;-68
2022/05/19 04:23:07;;;;;;;65.28;47.00;;;15.30;99.90;;;;;;4988411;28;20046;-68
2022/05/19 04:25:33;;;;;;;61.13;45.15;;;15.40;99.90;;;;;;4993493;28;20042;-68
2022/05/19 04:27:59;;;;;;;62.00;44.65;;;15.40;99.90;;;;;;4991482;28;20065;-67
2022/05/19 04:30:25;;;;;;;59.47;43.28;;;15.50;99.90;;;;;;5004612;28;20046;-68
2022/05/19 04:32:52;;;;;;;62.20;44.58;;;15.60;99.90;;;;;;5005938;28;20085;-68
2022/05/19 04:35:18;;;;;;;62.10;46.25;;;15.90;99.90;;;;;;4988040;28;20503;-69
2022/05/19 04:37:44;;;;;;;64.65;47.90;;;15.80;99.90;;;;;;4992165;28;20045;-68
2022/05/19 04:40:10;;;;;;;61.45;46.70;;;16.00;99.90;;;;;;5004157;28;20456;-68
2022/05/19 04:42:36;;;;;;;61.42;47.67;;;16.10;99.90;;;;;;4986124;28;20082;-68
2022/05/19 04:45:03;;;;;;;64.97;46.05;;;16.40;99.90;;;;;;5000388;28;20058;-68
2022/05/19 04:47:29;;;;;;;58.25;46.05;;;16.60;99.90;;;;;;4977212;28;21515;-68
2022/05/19 04:49:55;;;;;;;62.92;46.42;;;16.70;99.90;;;;;;4992412;28;20302;-68
2022/05/19 04:52:21;;;;;;;64.30;47.78;;;16.70;99.90;;;;;;4986251;28;20046;-68
2022/05/19 04:54:47;;;;;;;65.72;48.00;;;16.80;99.90;;;;;;4972553;28;20473;-68
2022/05/19 04:57:13;;;;;;;62.63;48.50;;;16.80;99.90;;;;;;4990573;28;20510;-68
2022/05/19 04:59:40;;;;;;;62.65;46.95;;;16.80;99.90;;;;;;4970999;28;20053;-68
2022/05/19 05:02:07;;;;;;;62.80;47.60;;;16.80;99.90;;;;;;4981051;28;20065;-68
2022/05/19 05:04:33;;;;;;;64.38;47.67;;;16.90;99.90;;;;;;4990151;28;20750;-68
2022/05/19 05:06:58;;;;;;;63.50;46.80;;;16.90;99.90;;;;;;5008564;28;20299;-68
2022/05/19 05:09:25;;;;;;;58.42;43.85;;;16.90;99.90;;;;;;4987319;28;20046;-68
2022/05/19 05:11:51;;;;;;;56.58;42.55;;;17.00;99.90;;;;;;4987642;28;20108;-68
2022/05/19 05:14:17;;;;;;;54.97;41.75;;;17.00;99.90;;;;;;4993476;28;20563;-69
2022/05/19 05:16:49;;;;;;;48.85;38.88;;;17.10;99.90;;;;;;4993388;28;20042;-68
2022/05/19 05:19:19;;;;;;;60.03;39.55;;;17.20;99.90;;;;;;5011703;28;20049;-68
2022/05/19 05:21:45;;;;;;;55.40;38.85;;;17.20;99.90;;;;;;5017586;28;20439;-68
2022/05/19 05:24:11;;;;;;;53.85;39.72;;;17.20;99.90;;;;;;4983004;28;20046;-67
2022/05/19 05:26:37;;;;;;;49.80;35.67;;;17.30;99.90;;;;;;4982409;28;20575;-67
2022/05/19 05:29:02;;;;;;;47.53;37.95;;;17.30;99.90;;;;;;4984523;28;20042;-67
2022/05/19 05:31:28;;;;;;;48.28;36.58;;;17.40;99.90;;;;;;4985042;28;20068;-67
2022/05/19 05:33:54;;;;;;;48.83;35.92;;;17.40;99.90;;;;;;4983065;28;20499;-67
2022/05/19 05:36:20;;;;;;;48.80;36.22;;;17.50;99.90;;;;;;4981238;28;20560;-68
2022/05/19 05:38:46;;;;;;;46.90;36.72;;;17.50;99.90;;;;;;4957782;28;20377;-68
2022/05/19 05:41:13;;;;;;;44.53;35.25;;;17.60;99.90;;;;;;4983460;28;20042;-68
2022/05/19 05:43:40;;;;;;;43.85;34.38;;;17.70;99.90;;;;;;4981221;28;20046;-68
2022/05/19 05:46:12;;;;;;;45.97;34.78;;;17.80;99.90;;;;;;4964813;28;20061;-68
2022/05/19 05:48:38;;;;;;;46.30;34.95;;;17.80;99.90;;;;;;4986776;28;20408;-68
2022/05/19 05:51:09;;;;;;;43.67;33.80;;;17.90;99.90;;;;;;4981011;28;20473;-68
2022/05/19 05:53:36;;;;;;;45.38;33.42;;;17.90;99.90;;;;;;4978768;28;20423;-68
2022/05/19 05:56:03;;;;;;;43.47;32.75;;;17.90;99.90;;;;;;4988089;28;20108;-68
2022/05/19 05:58:29;;;;;;;41.25;32.47;;;17.90;99.90;;;;;;4985615;28;20396;-68
2022/05/19 06:00:55;;;;;;;44.80;32.33;;;17.90;99.90;;;;;;4996502;28;20057;-68
2022/05/19 06:03:21;;;;;;;43.33;33.47;;;18.00;99.90;;;;;;4984553;28;20042;-68
2022/05/19 06:05:47;;;;;;;46.33;31.10;;;18.00;99.90;;;;;;4984781;28;20046;-68
2022/05/19 06:08:12;;;;;;;39.83;30.65;;;18.10;99.90;;;;;;4978388;28;20046;-68
2022/05/19 06:10:39;;;;;;;40.15;29.80;;;18.20;99.90;;;;;;4979674;28;20047;-68
2022/05/19 06:13:06;;;;;;;41.63;29.83;;;18.20;99.90;;;;;;4979315;28;20141;-69
2022/05/19 06:15:31;;;;;;;37.67;28.88;;;18.30;99.90;;;;;;4973964;28;21219;-68
2022/05/19 06:17:58;;;;;;;33.75;27.33;;;18.30;99.90;;;;;;4980461;28;20041;-68
2022/05/19 06:20:24;;;;;;;34.17;27.10;;;18.40;99.90;;;;;;4996266;28;20047;-68
2022/05/19 06:22:50;;;;;;;37.22;27.30;;;18.40;99.90;;;;;;4984136;28;20057;-68
2022/05/19 06:25:21;;;;;;;33.35;26.73;;;18.50;99.90;;;;;;4989562;28;20500;-69
2022/05/19 06:27:49;;;;;;;34.00;26.42;;;18.50;99.90;;;;;;4976135;28;20050;-68
2022/05/19 06:30:15;;;;;;;33.53;24.48;;;18.40;99.90;;;;;;5002666;28;20511;-68
2022/05/19 06:32:42;;;;;;;32.67;24.65;;;18.50;99.90;;;;;;4985822;28;20491;-69
2022/05/19 06:35:10;;;;;;;34.53;25.40;;;18.50;99.90;;;;;;5009438;28;20050;-68
2022/05/19 06:37:35;;;;;;;35.05;24.77;;;18.50;99.90;;;;;;4976731;28;20050;-68
2022/05/19 06:40:01;;;;;;;33.35;23.80;;;18.50;99.90;;;;;;4986538;28;20259;-69
2022/05/19 06:42:27;;;;;;;36.25;26.42;;;18.40;99.90;;;;;;4984061;28;20531;-68
2022/05/19 06:44:53;;;;;;;37.40;26.35;;;18.40;99.90;;;;;;5015100;28;20124;-68
2022/05/19 06:47:18;;;;;;;36.00;30.42;;;18.30;99.90;;;;;;4988950;28;20127;-69
2022/05/19 06:49:48;;;;;;;43.25;30.05;;;18.30;99.90;;;;;;4996909;28;20068;-68
2022/05/19 06:52:25;;;;;;;36.95;28.40;;;18.20;99.90;;;;;;4983119;28;20053;-68
2022/05/19 06:54:54;;;;;;;39.13;28.98;;;18.10;99.90;;;;;;4980326;28;20054;-68
2022/05/19 06:57:21;;;;;;;40.05;29.42;;;18.00;99.90;;;;;;5000052;28;20506;-68
2022/05/19 06:59:49;;;;;;;40.63;29.65;;;17.90;99.90;;;;;;4986642;28;20054;-70
2022/05/19 07:02:22;;;;;;;33.95;26.70;;;18.00;99.90;;;;;;4965691;28;20145;-69
2022/05/19 07:04:47;;;;;;;33.85;24.33;;;18.00;99.90;;;;;;4975377;28;20061;-70
2022/05/19 07:07:13;;;;;;;31.63;26.35;;;18.00;99.90;;;;;;4970861;28;20412;-69
2022/05/19 07:09:40;;;;;;;34.15;24.15;;;18.10;99.90;;;;;;4991610;28;20046;-69
2022/05/19 07:12:10;;;;;;;30.58;23.50;;;18.20;99.90;;;;;;4989102;28;20057;-68
2022/05/19 07:14:40;;;;;;;34.75;22.88;;;18.20;99.90;;;;;;4987823;28;20147;-69
2022/05/19 07:17:06;;;;;;;28.35;21.65;;;18.20;99.90;;;;;;5003534;28;20084;-68
2022/05/19 07:22:22;;;;;;;30.85;22.65;;;18.40;99.90;;;;;;4986595;28;20042;-69
2022/05/19 07:24:48;;;;;;;36.42;24.33;;;18.50;99.90;;;;;;4987780;28;20042;-68
2022/05/19 07:27:15;;;;;;;35.83;24.58;;;18.40;99.90;;;;;;4984031;28;20069;-69
2022/05/19 07:29:41;;;;;;;29.13;22.05;;;18.40;99.90;;;;;;4981795;28;20420;-68
2022/05/19 07:32:08;;;;;;;33.00;22.15;;;18.40;99.90;;;;;;4979180;28;20057;-68
2022/05/19 07:34:37;;;;;;;26.33;21.38;;;18.30;99.90;;;;;;4984277;28;20327;-69
2022/05/19 07:37:04;;;;;;;28.98;22.13;;;18.30;99.90;;;;;;4982995;28;20768;-69
2022/05/19 07:39:30;;;;;;;32.33;22.30;;;18.20;99.90;;;;;;4989752;28;20048;-68
2022/05/19 07:41:56;;;;;;;29.52;22.60;;;18.20;99.90;;;;;;4981845;28;20073;-68
2022/05/19 07:44:23;;;;;;;29.20;23.58;;;18.20;99.90;;;;;;4982763;28;20484;-68
2022/05/19 07:46:49;;;;;;;30.67;25.25;;;18.20;99.90;;;;;;5002441;28;20575;-69
2022/05/19 07:49:15;;;;;;;30.88;21.90;;;18.20;99.90;;;;;;4993359;28;20050;-68
2022/05/19 07:51:44;;;;;;;31.27;22.70;;;18.20;99.90;;;;;;4969354;28;20459;-69
2022/05/19 07:54:16;;;;;;;29.85;23.40;;;18.20;99.90;;;;;;4989239;28;20042;-69
2022/05/19 07:56:42;;;;;;;29.92;21.95;;;18.30;99.90;;;;;;4985176;28;20109;-68
2022/05/19 07:59:10;;;;;;;34.08;22.98;;;18.30;99.90;;;;;;4990891;28;20057;-68
2022/05/19 08:01:40;;;;;;;29.98;22.17;;;18.30;99.90;;;;;;4999091;28;20054;-68
2022/05/19 08:04:08;;;;;;;28.92;22.70;;;18.40;99.90;;;;;;5012722;28;20053;-69
2022/05/19 08:06:34;;;;;;;28.67;22.95;;;18.50;99.90;;;;;;5000502;28;20077;-68
2022/05/19 08:09:00;;;;;;;26.25;22.10;;;18.60;99.90;;;;;;4987644;28;20104;-68
2022/05/19 08:11:27;;;;;;;26.95;19.13;;;18.60;99.90;;;;;;4988606;28;20046;-69
2022/05/19 08:16:38;;;;;;;32.40;17.52;;;18.60;99.90;;;;;;4994943;28;20149;-69
2022/05/19 08:19:04;;;;;;;20.90;14.63;;;18.60;99.90;;;;;;4986350;28;20547;-69
2022/05/19 08:21:31;;;;;;;19.33;13.18;;;18.60;99.90;;;;;;4986641;28;20081;-69
2022/05/19 08:23:57;;;;;;;22.65;14.07;;;18.50;99.90;;;;;;4982961;28;20049;-69
2022/05/19 08:26:23;;;;;;;19.85;14.43;;;18.50;99.90;;;;;;4986587;28;20050;-69
2022/05/19 08:28:50;;;;;;;26.73;14.35;;;18.50;99.90;;;;;;4992561;28;20050;-69
2022/05/19 08:31:20;;;;;;;18.30;11.15;;;18.60;99.90;;;;;;4997961;28;20064;-69
2022/05/19 08:33:47;;;;;;;17.15;10.00;;;18.60;99.90;;;;;;4973775;28;20075;-69
2022/05/19 08:36:13;;;;;;;18.27;10.10;;;18.70;99.90;;;;;;4986217;28;20416;-68
2022/05/19 08:38:40;;;;;;;16.67;10.00;;;18.70;99.90;;;;;;4995401;28;20499;-68
2022/05/19 08:41:09;;;;;;;17.77;9.85;;;18.90;99.90;;;;;;5003196;28;20046;-69
2022/05/19 08:43:47;;;;;;;19.63;9.43;;;19.00;99.90;;;;;;4985988;28;20046;-68
2022/05/19 08:46:36;;;;;;;17.80;10.15;;;19.20;99.90;;;;;;4979754;28;20060;-68
2022/05/19 08:49:14;;;;;;;18.30;12.48;;;19.40;99.90;;;;;;4987692;28;20140;-68
2022/05/19 08:52:05;;;;;;;20.25;13.98;;;19.60;99.90;;;;;;4990247;28;20120;-69
2022/05/19 08:54:32;;;;;;;22.92;15.93;;;19.90;99.90;;;;;;4991529;28;20193;-69
2022/05/19 08:57:35;;;;;;;19.20;14.10;;;20.10;99.90;;;;;;4985237;28;20077;-68
2022/05/19 09:00:15;;;;;;;18.08;12.15;;;20.20;99.90;;;;;;5015703;28;20092;-69
2022/05/19 09:03:09;;;;;;;20.33;12.35;;;20.40;99.90;;;;;;4984006;28;20108;-68
2022/05/19 09:06:00;;;;;;;24.73;14.27;;;20.70;99.90;;;;;;4994769;28;20107;-68
2022/05/19 09:08:31;;;;;;;21.58;15.07;;;20.90;99.90;;;;;;4976812;28;20046;-68
2022/05/19 09:11:00;;;;;;;20.15;14.45;;;21.10;99.90;;;;;;4993409;28;20085;-68
2022/05/19 09:13:29;;;;;;;23.08;14.95;;;21.40;99.90;;;;;;4984015;28;20130;-67
2022/05/19 09:15:55;;;;;;;23.08;15.65;;;21.60;99.90;;;;;;4985798;28;20562;-68
2022/05/19 09:18:34;;;;;;;22.50;14.82;;;21.70;99.90;;;;;;4988855;28;20043;-68
2022/05/19 09:21:02;;;;;;;21.38;14.65;;;21.80;99.90;;;;;;4988857;28;20046;-69
2022/05/19 09:23:28;;;;;;;20.40;14.00;;;21.80;99.90;;;;;;5001176;28;20050;-68
2022/05/19 09:26:20;;;;;;;19.42;13.32;;;21.90;99.90;;;;;;5001518;28;20049;-69
2022/05/19 09:28:47;;;;;;;20.90;13.27;;;21.90;99.90;;;;;;4988898;28;20050;-68
2022/05/19 09:31:13;;;;;;;20.17;14.25;;;21.90;99.90;;;;;;4994059;28;20117;-68
2022/05/19 09:33:44;;;;;;;19.20;14.30;;;21.90;99.90;;;;;;4987697;28;20046;-69
2022/05/19 09:36:13;;;;;;;22.23;14.30;;;22.00;99.90;;;;;;4989463;28;20050;-68
2022/05/19 09:38:55;;;;;;;20.85;12.68;;;22.10;99.90;;;;;;4988990;28;20524;-68
2022/05/19 09:41:30;;;;;;;19.33;12.63;;;22.10;99.90;;;;;;4989984;28;20511;-68
2022/05/19 09:43:58;;;;;;;15.60;11.40;;;22.20;99.90;;;;;;4971612;28;20038;-68
2022/05/19 09:46:30;;;;;;;16.42;12.25;;;22.30;99.90;;;;;;4990229;28;20038;-69
2022/05/19 09:49:02;;;;;;;18.63;13.07;;;22.40;99.90;;;;;;4987086;28;20061;-69
2022/05/19 09:51:39;;;;;;;17.52;13.32;;;22.60;99.90;;;;;;5003669;28;20104;-68
2022/05/19 09:54:06;;;;;;;19.02;12.45;;;22.50;99.90;;;;;;4988488;28;20088;-68
2022/05/19 09:56:37;;;;;;;20.05;13.57;;;22.50;99.90;;;;;;4988859;28;20042;-68
2022/05/19 09:59:19;;;;;;;17.27;12.27;;;22.40;99.90;;;;;;4988835;28;20112;-68
2022/05/19 10:01:47;;;;;;;15.95;11.77;;;22.30;99.90;;;;;;4988926;28;20101;-69
2022/05/19 10:04:39;;;;;;;18.77;13.13;;;22.30;99.90;;;;;;4984900;28;20054;-69
2022/05/19 10:07:19;;;;;;;17.55;11.25;;;22.20;99.90;;;;;;4970289;28;20436;-69
2022/05/19 10:09:47;;;;;;;19.55;12.60;;;22.20;99.90;;;;;;4988328;28;20061;-69
2022/05/19 10:12:19;;;;;;;18.88;12.07;;;22.20;99.90;;;;;;4988283;28;20385;-68
2022/05/19 10:14:51;;;;;;;19.08;11.63;;;22.30;99.90;;;;;;4988341;28;20076;-68
2022/05/19 10:17:23;;;;;;;18.35;12.00;;;22.60;99.90;;;;;;4969051;28;20067;-69
2022/05/19 10:19:48;;;;;;;15.57;11.15;;;23.10;99.90;;;;;;4987258;28;20045;-68
2022/05/19 10:22:48;;;;;;;15.82;11.05;;;23.60;99.90;;;;;;4989339;28;20054;-68
2022/05/19 10:25:40;;;;;;;15.05;11.40;;;23.80;99.90;;;;;;4987011;28;20133;-68
2022/05/19 10:31:30;;;;;;;15.70;10.65;;;24.40;99.90;;;;;;4989803;28;20058;-69
2022/05/19 10:34:08;;;;;;;16.33;9.02;;;24.20;99.90;;;;;;4988424;28;20558;-68
2022/05/19 10:36:45;;;;;;;16.23;8.75;;;23.90;99.90;;;;;;4988446;28;20046;-68
2022/05/19 10:39:50;;;;;;;14.30;9.15;;;23.70;99.90;;;;;;4986403;28;20046;-68
2022/05/19 10:42:25;;;;;;;14.65;8.50;;;23.50;99.90;;;;;;4988793;28;20064;-68
2022/05/19 10:44:53;;;;;;;12.98;8.57;;;23.50;99.90;;;;;;4991789;28;20462;-68
2022/05/19 10:47:19;;;;;;;13.30;8.85;;;23.60;99.90;;;;;;4990113;28;20045;-68
2022/05/19 10:49:57;;;;;;;15.10;8.55;;;23.90;99.90;;;;;;4986869;28;20054;-68
2022/05/19 10:52:58;;;;;;;11.52;8.27;;;24.20;99.90;;;;;;4987888;28;20446;-68
2022/05/19 10:55:31;;;;;;;13.67;9.33;;;24.60;99.90;;;;;;4978849;28;20046;-68
2022/05/19 10:58:15;;;;;;;11.90;8.05;;;25.10;99.90;;;;;;4988760;28;20815;-68
2022/05/19 11:00:50;;;;;;;11.65;7.78;;;25.30;99.90;;;;;;4962954;28;20359;-68
2022/05/19 11:03:28;;;;;;;11.95;9.13;;;25.60;99.90;;;;;;5011651;28;20051;-68
2022/05/19 11:05:57;;;;;;;14.73;8.55;;;25.80;99.90;;;;;;4999217;28;20763;-68
2022/05/19 11:09:04;;;;;;;10.63;7.65;;;26.00;99.90;;;;;;5004337;28;20081;-68
2022/05/19 11:11:48;;;;;;;12.35;7.00;;;26.20;99.90;;;;;;5000753;28;20049;-69
2022/05/19 11:14:24;;;;;;;10.93;6.95;;;26.50;99.90;;;;;;4993423;28;20065;-68
2022/05/19 11:16:57;;;;;;;11.18;7.22;;;26.60;99.90;;;;;;4992854;28;20480;-68
2022/05/19 11:19:23;;;;;;;10.48;6.25;;;26.60;99.90;;;;;;4990851;28;20037;-68
2022/05/19 11:22:02;;;;;;;12.95;7.57;;;26.40;99.90;;;;;;4991997;28;20053;-69
2022/05/19 11:24:32;;;;;;;11.55;7.13;;;26.30;99.90;;;;;;4995422;28;20038;-69
2022/05/19 11:27:10;;;;;;;8.68;6.07;;;26.20;99.90;;;;;;4991996;28;20046;-69
2022/05/19 11:29:45;;;;;;;8.68;5.55;;;26.20;99.90;;;;;;4994947;28;20135;-69
2022/05/19 11:32:44;;;;;;;9.43;5.43;;;26.30;99.90;;;;;;5021001;28;20065;-69
2022/05/19 11:35:38;;;;;;;9.90;6.13;;;26.50;99.90;;;;;;4989711;28;20054;-69
2022/05/19 11:38:08;;;;;;;7.80;5.35;;;26.60;99.90;;;;;;4994687;28;20054;-69
2022/05/19 11:40:42;;;;;;;9.25;5.85;;;26.70;99.90;;;;;;4982788;28;20472;-68
2022/05/19 11:43:30;;;;;;;8.90;5.50;;;26.70;99.90;;;;;;4991694;28;20153;-68
2022/05/19 11:46:03;;;;;;;7.72;4.63;;;26.50;99.90;;;;;;4983733;28;20771;-68
2022/05/19 11:57:42;;;;;;;9.20;6.28;;;25.90;99.90;;;;;;4997133;28;20049;-69
2022/05/19 12:00:11;;;;;;;10.73;5.80;;;25.50;99.90;;;;;;4996987;28;20112;-68
2022/05/19 12:02:48;;;;;;;9.48;5.65;;;25.20;99.90;;;;;;5014067;28;20041;-69
2022/05/19 12:05:20;;;;;;;9.93;5.72;;;25.00;99.90;;;;;;5017973;28;20511;-69
2022/05/19 12:07:53;;;;;;;9.98;5.57;;;24.70;99.90;;;;;;4991415;28;20056;-68
2022/05/19 12:10:31;;;;;;;10.52;5.78;;;24.50;99.90;;;;;;4998265;28;20499;-68
2022/05/19 12:13:00;;;;;;;9.60;6.60;;;24.30;99.90;;;;;;4992025;28;20352;-69
2022/05/19 12:15:36;;;;;;;13.82;6.82;;;24.10;99.90;;;;;;4995010;28;20210;-69
2022/05/19 12:18:22;;;;;;;9.95;7.30;;;23.90;99.90;;;;;;4992691;28;20447;-68
2022/05/19 12:20:53;;;;;;;14.32;6.50;;;23.70;99.90;;;;;;4997624;28;20104;-69
2022/05/19 12:23:20;;;;;;;9.40;6.45;;;23.60;99.90;;;;;;4999044;28;20034;-69
2022/05/19 12:25:50;;;;;;;11.55;6.45;;;23.50;99.90;;;;;;5017405;28;20115;-69
2022/05/19 12:28:19;;;;;;;11.37;6.80;;;23.40;99.90;;;;;;5013894;28;20053;-68
2022/05/19 12:34:09;;;;;;;11.18;6.50;;;23.30;99.90;;;;;;5016608;28;20169;-69
2022/05/19 12:36:37;;;;;;;13.68;6.80;;;23.20;99.90;;;;;;5016271;28;20176;-69
2022/05/19 12:39:09;;;;;;;9.60;5.97;;;23.10;99.90;;;;;;5002261;28;20053;-68
2022/05/19 12:41:39;;;;;;;8.55;5.90;;;23.00;99.90;;;;;;4996657;28;20049;-69
2022/05/19 12:44:41;;;;;;;13.65;7.07;;;23.00;99.90;;;;;;4983786;28;20392;-68
2022/05/19 12:47:15;;;;;;;21.10;7.45;;;22.80;99.90;;;;;;4986497;28;20050;-68
2022/05/19 12:50:17;;;;;;;8.88;4.40;;;22.50;99.90;;;;;;5010282;28;20046;-68
2022/05/19 12:53:05;;;;;;;7.78;2.60;;;22.00;99.90;;;;;;5018208;28;20061;-67
2022/05/19 12:55:40;;;;;;;5.63;2.05;;;21.50;99.90;;;;;;4976055;28;20379;-69
2022/05/19 12:58:39;;;;;;;7.65;2.00;;;21.20;99.90;;;;;;4974321;28;20465;-68
2022/05/19 13:01:29;;;;;;;5.65;1.48;;;20.80;99.90;;;;;;4979323;28;20141;-67
2022/05/19 13:04:17;;;;;;;3.13;1.23;;;20.50;99.90;;;;;;4987117;28;20081;-68
2022/05/19 13:06:51;;;;;;;4.13;1.20;;;20.10;99.90;;;;;;4985617;28;20112;-67
2022/05/19 13:09:22;;;;;;;3.50;1.20;;;19.90;99.90;;;;;;4980392;28;20038;-67
2022/05/19 13:11:54;;;;;;;5.97;1.30;;;19.80;99.90;;;;;;4985367;28;20507;-68
2022/05/19 13:14:28;;;;;;;4.03;1.75;;;19.60;99.90;;;;;;5005488;28;20042;-68